sensor_id;sensor_type;location;lat;lon;timestamp;P1;durP1;ratioP1;P2;durP2;ratioP2
78931;SDS011;68331;53.362;55.932;2023-04-01T00:01:43;5.97;;;3.90;;
78931;SDS011;68331;53.362;55.932;2023-04-01T00:04:08;6.68;;;5.03;;
78931;SDS011;68331;53.362;55.932;2023-04-01T00:06:34;10.88;;;4.20;;
78931;SDS011;68331;53.362;55.932;2023-04-01T00:09:00;5.20;;;3.55;;
78931;SDS011;68331;53.362;55.932;2023-04-01T00:11:26;7.72;;;4.10;;
78931;SDS011;68331;53.362;55.932;2023-04-01T00:13:53;5.97;;;3.85;;
78931;SDS011;68331;53.362;55.932;2023-04-01T00:16:20;5.05;;;4.13;;
78931;SDS011;68331;53.362;55.932;2023-04-01T00:18:46;4.97;;;3.65;;
78931;SDS011;68331;53.362;55.932;2023-04-01T00:21:13;5.00;;;4.18;;
78931;SDS011;68331;53.362;55.932;2023-04-01T00:23:38;5.57;;;3.80;;
78931;SDS011;68331;53.362;55.932;2023-04-01T00:26:04;7.95;;;4.00;;
78931;SDS011;68331;53.362;55.932;2023-04-01T00:28:30;5.57;;;3.85;;
78931;SDS011;68331;53.362;55.932;2023-04-01T00:30:58;7.28;;;4.32;;
78931;SDS011;68331;53.362;55.932;2023-04-01T00:33:30;7.40;;;4.13;;
78931;SDS011;68331;53.362;55.932;2023-04-01T00:35:56;8.57;;;6.18;;
78931;SDS011;68331;53.362;55.932;2023-04-01T00:38:31;5.95;;;4.68;;
78931;SDS011;68331;53.362;55.932;2023-04-01T00:40:57;7.47;;;5.75;;
78931;SDS011;68331;53.362;55.932;2023-04-01T00:43:25;9.55;;;5.00;;
78931;SDS011;68331;53.362;55.932;2023-04-01T00:45:51;6.82;;;4.72;;
78931;SDS011;68331;53.362;55.932;2023-04-01T00:48:18;8.15;;;4.75;;
78931;SDS011;68331;53.362;55.932;2023-04-01T00:51:32;8.23;;;5.32;;
78931;SDS011;68331;53.362;55.932;2023-04-01T00:53:43;8.32;;;4.75;;
78931;SDS011;68331;53.362;55.932;2023-04-01T00:56:17;8.02;;;5.07;;
78931;SDS011;68331;53.362;55.932;2023-04-01T00:58:51;9.05;;;5.22;;
78931;SDS011;68331;53.362;55.932;2023-04-01T01:01:34;7.90;;;5.10;;
78931;SDS011;68331;53.362;55.932;2023-04-01T01:04:01;7.63;;;5.15;;
78931;SDS011;68331;53.362;55.932;2023-04-01T01:09:25;5.72;;;5.15;;
78931;SDS011;68331;53.362;55.932;2023-04-01T01:12:20;7.30;;;4.68;;
78931;SDS011;68331;53.362;55.932;2023-04-01T01:15:09;6.07;;;4.25;;
78931;SDS011;68331;53.362;55.932;2023-04-01T01:18:01;7.43;;;4.57;;
78931;SDS011;68331;53.362;55.932;2023-04-01T01:20:33;8.02;;;5.20;;
78931;SDS011;68331;53.362;55.932;2023-04-01T01:23:15;8.88;;;5.32;;
78931;SDS011;68331;53.362;55.932;2023-04-01T01:31:08;8.15;;;6.57;;
78931;SDS011;68331;53.362;55.932;2023-04-01T01:33:48;7.57;;;5.93;;
78931;SDS011;68331;53.362;55.932;2023-04-01T01:36:23;7.95;;;5.35;;
78931;SDS011;68331;53.362;55.932;2023-04-01T01:38:55;7.03;;;4.72;;
78931;SDS011;68331;53.362;55.932;2023-04-01T01:43:51;9.57;;;5.28;;
78931;SDS011;68331;53.362;55.932;2023-04-01T01:46:22;6.90;;;5.00;;
78931;SDS011;68331;53.362;55.932;2023-04-01T01:48:52;9.10;;;5.55;;
78931;SDS011;68331;53.362;55.932;2023-04-01T01:51:19;10.15;;;5.90;;
78931;SDS011;68331;53.362;55.932;2023-04-01T01:53:46;8.40;;;5.40;;
78931;SDS011;68331;53.362;55.932;2023-04-01T01:56:14;10.50;;;6.13;;
78931;SDS011;68331;53.362;55.932;2023-04-01T01:58:45;8.48;;;6.18;;
78931;SDS011;68331;53.362;55.932;2023-04-01T02:01:17;11.57;;;5.80;;
78931;SDS011;68331;53.362;55.932;2023-04-01T02:03:49;8.68;;;5.13;;
78931;SDS011;68331;53.362;55.932;2023-04-01T02:06:19;9.15;;;5.88;;
78931;SDS011;68331;53.362;55.932;2023-04-01T02:11:24;7.88;;;5.22;;
78931;SDS011;68331;53.362;55.932;2023-04-01T02:19:13;11.65;;;6.88;;
78931;SDS011;68331;53.362;55.932;2023-04-01T02:21:53;10.50;;;6.35;;
78931;SDS011;68331;53.362;55.932;2023-04-01T02:24:22;9.88;;;7.53;;
78931;SDS011;68331;53.362;55.932;2023-04-01T02:26:51;8.55;;;5.80;;
78931;SDS011;68331;53.362;55.932;2023-04-01T02:29:18;9.93;;;6.65;;
78931;SDS011;68331;53.362;55.932;2023-04-01T02:31:46;10.27;;;6.40;;
78931;SDS011;68331;53.362;55.932;2023-04-01T02:34:12;9.05;;;6.03;;
78931;SDS011;68331;53.362;55.932;2023-04-01T02:36:39;8.05;;;5.80;;
78931;SDS011;68331;53.362;55.932;2023-04-01T02:39:05;10.93;;;6.80;;
78931;SDS011;68331;53.362;55.932;2023-04-01T02:41:38;9.52;;;6.50;;
78931;SDS011;68331;53.362;55.932;2023-04-01T02:44:09;9.63;;;6.72;;
78931;SDS011;68331;53.362;55.932;2023-04-01T02:46:36;10.95;;;6.53;;
78931;SDS011;68331;53.362;55.932;2023-04-01T02:49:03;10.00;;;6.72;;
78931;SDS011;68331;53.362;55.932;2023-04-01T02:51:30;10.23;;;6.60;;
78931;SDS011;68331;53.362;55.932;2023-04-01T02:53:56;12.27;;;6.57;;
78931;SDS011;68331;53.362;55.932;2023-04-01T02:56:22;8.98;;;6.53;;
78931;SDS011;68331;53.362;55.932;2023-04-01T02:58:48;11.57;;;7.50;;
78931;SDS011;68331;53.362;55.932;2023-04-01T03:01:14;12.43;;;7.45;;
78931;SDS011;68331;53.362;55.932;2023-04-01T03:03:40;11.65;;;7.38;;
78931;SDS011;68331;53.362;55.932;2023-04-01T03:06:07;11.98;;;7.53;;
78931;SDS011;68331;53.362;55.932;2023-04-01T03:08:35;13.00;;;7.82;;
78931;SDS011;68331;53.362;55.932;2023-04-01T03:11:01;10.55;;;7.90;;
78931;SDS011;68331;53.362;55.932;2023-04-01T03:13:28;12.43;;;8.50;;
78931;SDS011;68331;53.362;55.932;2023-04-01T03:15:54;10.63;;;8.07;;
78931;SDS011;68331;53.362;55.932;2023-04-01T03:18:21;17.50;;;10.00;;
78931;SDS011;68331;53.362;55.932;2023-04-01T03:20:47;14.38;;;9.77;;
78931;SDS011;68331;53.362;55.932;2023-04-01T03:23:13;15.35;;;8.95;;
78931;SDS011;68331;53.362;55.932;2023-04-01T03:25:39;16.33;;;9.98;;
78931;SDS011;68331;53.362;55.932;2023-04-01T03:28:05;15.13;;;9.25;;
78931;SDS011;68331;53.362;55.932;2023-04-01T03:30:31;15.73;;;10.10;;
78931;SDS011;68331;53.362;55.932;2023-04-01T03:32:58;16.85;;;9.68;;
78931;SDS011;68331;53.362;55.932;2023-04-01T03:35:25;15.93;;;9.90;;
78931;SDS011;68331;53.362;55.932;2023-04-01T03:37:51;14.52;;;9.98;;
78931;SDS011;68331;53.362;55.932;2023-04-01T03:40:19;16.75;;;11.00;;
78931;SDS011;68331;53.362;55.932;2023-04-01T03:45:14;15.02;;;9.98;;
78931;SDS011;68331;53.362;55.932;2023-04-01T03:47:40;14.90;;;9.68;;
78931;SDS011;68331;53.362;55.932;2023-04-01T03:50:07;15.88;;;9.90;;
78931;SDS011;68331;53.362;55.932;2023-04-01T03:52:34;12.80;;;9.70;;
78931;SDS011;68331;53.362;55.932;2023-04-01T03:55:00;15.50;;;9.65;;
78931;SDS011;68331;53.362;55.932;2023-04-01T03:57:31;14.70;;;9.73;;
78931;SDS011;68331;53.362;55.932;2023-04-01T04:00:02;22.33;;;10.32;;
78931;SDS011;68331;53.362;55.932;2023-04-01T04:02:39;15.45;;;9.52;;
78931;SDS011;68331;53.362;55.932;2023-04-01T04:05:06;16.02;;;9.20;;
78931;SDS011;68331;53.362;55.932;2023-04-01T04:07:36;15.70;;;9.90;;
78931;SDS011;68331;53.362;55.932;2023-04-01T04:10:06;17.50;;;10.15;;
78931;SDS011;68331;53.362;55.932;2023-04-01T04:12:33;14.70;;;9.50;;
78931;SDS011;68331;53.362;55.932;2023-04-01T04:14:59;18.02;;;10.35;;
78931;SDS011;68331;53.362;55.932;2023-04-01T04:17:25;13.88;;;9.40;;
78931;SDS011;68331;53.362;55.932;2023-04-01T04:19:52;15.82;;;10.00;;
78931;SDS011;68331;53.362;55.932;2023-04-01T04:22:20;17.58;;;10.38;;
78931;SDS011;68331;53.362;55.932;2023-04-01T04:24:46;13.90;;;9.23;;
78931;SDS011;68331;53.362;55.932;2023-04-01T04:27:12;15.50;;;10.43;;
78931;SDS011;68331;53.362;55.932;2023-04-01T04:29:51;17.00;;;10.07;;
78931;SDS011;68331;53.362;55.932;2023-04-01T04:32:17;21.85;;;10.75;;
78931;SDS011;68331;53.362;55.932;2023-04-01T04:34:43;16.05;;;10.10;;
78931;SDS011;68331;53.362;55.932;2023-04-01T04:37:10;17.67;;;12.05;;
78931;SDS011;68331;53.362;55.932;2023-04-01T04:39:38;16.90;;;10.15;;
78931;SDS011;68331;53.362;55.932;2023-04-01T04:42:05;14.02;;;10.30;;
78931;SDS011;68331;53.362;55.932;2023-04-01T04:44:31;17.25;;;10.00;;
78931;SDS011;68331;53.362;55.932;2023-04-01T04:46:59;15.23;;;9.32;;
78931;SDS011;68331;53.362;55.932;2023-04-01T04:49:25;15.10;;;9.70;;
78931;SDS011;68331;53.362;55.932;2023-04-01T04:51:52;13.70;;;9.63;;
78931;SDS011;68331;53.362;55.932;2023-04-01T04:54:21;14.27;;;10.32;;
78931;SDS011;68331;53.362;55.932;2023-04-01T04:56:53;16.40;;;9.77;;
78931;SDS011;68331;53.362;55.932;2023-04-01T05:01:57;16.63;;;8.80;;
78931;SDS011;68331;53.362;55.932;2023-04-01T05:04:25;13.88;;;10.27;;
78931;SDS011;68331;53.362;55.932;2023-04-01T05:06:51;12.38;;;8.27;;
78931;SDS011;68331;53.362;55.932;2023-04-01T05:09:17;13.13;;;8.38;;
78931;SDS011;68331;53.362;55.932;2023-04-01T05:11:43;12.32;;;8.55;;
78931;SDS011;68331;53.362;55.932;2023-04-01T05:14:14;10.80;;;6.55;;
78931;SDS011;68331;53.362;55.932;2023-04-01T05:16:43;12.32;;;7.63;;
78931;SDS011;68331;53.362;55.932;2023-04-01T05:19:10;9.05;;;6.75;;
78931;SDS011;68331;53.362;55.932;2023-04-01T05:21:36;11.18;;;6.28;;
78931;SDS011;68331;53.362;55.932;2023-04-01T05:24:03;11.10;;;8.23;;
78931;SDS011;68331;53.362;55.932;2023-04-01T05:26:30;9.20;;;7.05;;
78931;SDS011;68331;53.362;55.932;2023-04-01T05:28:58;8.50;;;5.38;;
78931;SDS011;68331;53.362;55.932;2023-04-01T05:31:24;10.70;;;5.50;;
78931;SDS011;68331;53.362;55.932;2023-04-01T05:33:51;6.60;;;4.00;;
78931;SDS011;68331;53.362;55.932;2023-04-01T05:36:17;5.25;;;4.75;;
78931;SDS011;68331;53.362;55.932;2023-04-01T05:38:44;7.78;;;4.20;;
78931;SDS011;68331;53.362;55.932;2023-04-01T05:41:12;4.68;;;3.50;;
78931;SDS011;68331;53.362;55.932;2023-04-01T05:43:44;5.57;;;3.92;;
78931;SDS011;68331;53.362;55.932;2023-04-01T05:46:33;7.68;;;4.20;;
78931;SDS011;68331;53.362;55.932;2023-04-01T05:49:30;3.08;;;2.75;;
78931;SDS011;68331;53.362;55.932;2023-04-01T05:51:59;4.05;;;3.45;;
78931;SDS011;68331;53.362;55.932;2023-04-01T05:54:26;14.05;;;4.07;;
78931;SDS011;68331;53.362;55.932;2023-04-01T05:56:52;5.82;;;3.22;;
78931;SDS011;68331;53.362;55.932;2023-04-01T05:59:19;8.02;;;2.97;;
78931;SDS011;68331;53.362;55.932;2023-04-01T06:01:46;8.90;;;5.03;;
78931;SDS011;68331;53.362;55.932;2023-04-01T06:04:15;7.18;;;5.07;;
78931;SDS011;68331;53.362;55.932;2023-04-01T06:06:45;8.68;;;4.20;;
78931;SDS011;68331;53.362;55.932;2023-04-01T06:09:13;7.32;;;4.28;;
78931;SDS011;68331;53.362;55.932;2023-04-01T06:14:32;6.85;;;4.60;;
78931;SDS011;68331;53.362;55.932;2023-04-01T06:20:19;8.35;;;4.65;;
78931;SDS011;68331;53.362;55.932;2023-04-01T06:31:03;8.02;;;4.40;;
78931;SDS011;68331;53.362;55.932;2023-04-01T06:50:48;5.72;;;3.08;;
78931;SDS011;68331;53.362;55.932;2023-04-01T06:54:00;6.90;;;3.78;;
78931;SDS011;68331;53.362;55.932;2023-04-01T06:56:53;6.63;;;4.07;;
78931;SDS011;68331;53.362;55.932;2023-04-01T06:59:27;5.35;;;3.95;;
78931;SDS011;68331;53.362;55.932;2023-04-01T07:01:57;6.07;;;4.40;;
78931;SDS011;68331;53.362;55.932;2023-04-01T07:04:37;7.03;;;3.65;;
78931;SDS011;68331;53.362;55.932;2023-04-01T07:09:55;5.18;;;3.25;;
78931;SDS011;68331;53.362;55.932;2023-04-01T07:12:36;5.88;;;3.83;;
78931;SDS011;68331;53.362;55.932;2023-04-01T07:15:33;5.57;;;3.17;;
78931;SDS011;68331;53.362;55.932;2023-04-01T07:18:30;6.88;;;3.40;;
78931;SDS011;68331;53.362;55.932;2023-04-01T07:21:00;8.20;;;4.38;;
78931;SDS011;68331;53.362;55.932;2023-04-01T07:23:38;5.78;;;3.45;;
78931;SDS011;68331;53.362;55.932;2023-04-01T07:26:30;9.07;;;3.55;;
78931;SDS011;68331;53.362;55.932;2023-04-01T07:29:04;5.65;;;3.60;;
78931;SDS011;68331;53.362;55.932;2023-04-01T07:34:12;7.70;;;3.45;;
78931;SDS011;68331;53.362;55.932;2023-04-01T07:37:04;5.90;;;2.63;;
78931;SDS011;68331;53.362;55.932;2023-04-01T07:42:28;4.90;;;3.30;;
78931;SDS011;68331;53.362;55.932;2023-04-01T07:53:46;5.65;;;3.10;;
78931;SDS011;68331;53.362;55.932;2023-04-01T08:05:27;5.97;;;3.50;;
78931;SDS011;68331;53.362;55.932;2023-04-01T08:16:43;6.45;;;2.60;;
78931;SDS011;68331;53.362;55.932;2023-04-01T08:19:30;13.55;;;4.28;;
78931;SDS011;68331;53.362;55.932;2023-04-01T08:22:11;7.55;;;3.40;;
78931;SDS011;68331;53.362;55.932;2023-04-01T08:24:45;5.85;;;3.50;;
78931;SDS011;68331;53.362;55.932;2023-04-01T08:27:34;6.25;;;3.53;;
78931;SDS011;68331;53.362;55.932;2023-04-01T08:32:55;13.82;;;4.45;;
78931;SDS011;68331;53.362;55.932;2023-04-01T08:35:37;6.85;;;3.38;;
78931;SDS011;68331;53.362;55.932;2023-04-01T08:38:07;10.15;;;3.67;;
78931;SDS011;68331;53.362;55.932;2023-04-01T08:52:33;9.40;;;3.40;;
78931;SDS011;68331;53.362;55.932;2023-04-01T09:03:53;7.70;;;3.38;;
78931;SDS011;68331;53.362;55.932;2023-04-01T09:06:39;11.32;;;3.25;;
78931;SDS011;68331;53.362;55.932;2023-04-01T09:14:53;34.70;;;5.53;;
78931;SDS011;68331;53.362;55.932;2023-04-01T09:31:47;29.27;;;5.10;;
78931;SDS011;68331;53.362;55.932;2023-04-01T09:40:43;10.98;;;4.95;;
78931;SDS011;68331;53.362;55.932;2023-04-01T09:57:57;16.65;;;3.85;;
78931;SDS011;68331;53.362;55.932;2023-04-01T10:09:57;11.35;;;3.08;;
78931;SDS011;68331;53.362;55.932;2023-04-01T10:12:50;11.60;;;3.03;;
78931;SDS011;68331;53.362;55.932;2023-04-01T10:48:49;9.25;;;3.80;;
78931;SDS011;68331;53.362;55.932;2023-04-01T10:54:49;9.07;;;3.22;;
78931;SDS011;68331;53.362;55.932;2023-04-01T11:01:16;22.92;;;4.20;;
78931;SDS011;68331;53.362;55.932;2023-04-01T11:17:09;10.57;;;4.70;;
78931;SDS011;68331;53.362;55.932;2023-04-01T11:20:19;27.75;;;5.72;;
78931;SDS011;68331;53.362;55.932;2023-04-01T11:37:32;22.50;;;6.38;;
78931;SDS011;68331;53.362;55.932;2023-04-01T11:55:50;22.30;;;6.30;;
78931;SDS011;68331;53.362;55.932;2023-04-01T12:04:19;7.70;;;3.97;;
78931;SDS011;68331;53.362;55.932;2023-04-01T12:10:10;11.20;;;5.22;;
78931;SDS011;68331;53.362;55.932;2023-04-01T12:18:04;7.00;;;3.80;;
78931;SDS011;68331;53.362;55.932;2023-04-01T12:20:49;10.68;;;4.63;;
78931;SDS011;68331;53.362;55.932;2023-04-01T12:31:53;27.25;;;6.15;;
78931;SDS011;68331;53.362;55.932;2023-04-01T12:37:29;11.80;;;5.40;;
78931;SDS011;68331;53.362;55.932;2023-04-01T12:40:05;7.68;;;4.80;;
78931;SDS011;68331;53.362;55.932;2023-04-01T12:42:47;9.05;;;5.28;;
78931;SDS011;68331;53.362;55.932;2023-04-01T12:45:28;10.10;;;5.43;;
78931;SDS011;68331;53.362;55.932;2023-04-01T12:59:31;14.70;;;7.85;;
78931;SDS011;68331;53.362;55.932;2023-04-01T13:04:44;20.75;;;7.95;;
78931;SDS011;68331;53.362;55.932;2023-04-01T13:07:38;35.65;;;8.50;;
78931;SDS011;68331;53.362;55.932;2023-04-01T13:22:24;14.73;;;7.32;;
78931;SDS011;68331;53.362;55.932;2023-04-01T13:28:20;15.75;;;9.23;;
78931;SDS011;68331;53.362;55.932;2023-04-01T13:31:02;17.30;;;7.35;;
78931;SDS011;68331;53.362;55.932;2023-04-01T13:34:31;18.98;;;8.77;;
78931;SDS011;68331;53.362;55.932;2023-04-01T13:40:00;8.30;;;5.97;;
78931;SDS011;68331;53.362;55.932;2023-04-01T13:43:12;10.10;;;6.50;;
78931;SDS011;68331;53.362;55.932;2023-04-01T13:51:20;28.23;;;9.30;;
78931;SDS011;68331;53.362;55.932;2023-04-01T13:54:11;14.73;;;8.80;;
78931;SDS011;68331;53.362;55.932;2023-04-01T14:10:14;10.60;;;3.85;;
78931;SDS011;68331;53.362;55.932;2023-04-01T14:13:06;3.75;;;3.13;;
78931;SDS011;68331;53.362;55.932;2023-04-01T14:16:04;5.43;;;3.70;;
78931;SDS011;68331;53.362;55.932;2023-04-01T14:18:39;7.95;;;3.60;;
78931;SDS011;68331;53.362;55.932;2023-04-01T14:24:43;12.07;;;4.20;;
78931;SDS011;68331;53.362;55.932;2023-04-01T14:27:41;16.70;;;5.93;;
78931;SDS011;68331;53.362;55.932;2023-04-01T14:32:52;8.65;;;3.85;;
78931;SDS011;68331;53.362;55.932;2023-04-01T14:41:01;5.90;;;3.65;;
78931;SDS011;68331;53.362;55.932;2023-04-01T14:44:01;12.02;;;3.63;;
78931;SDS011;68331;53.362;55.932;2023-04-01T14:49:37;6.65;;;3.53;;
78931;SDS011;68331;53.362;55.932;2023-04-01T14:52:51;44.95;;;6.63;;
78931;SDS011;68331;53.362;55.932;2023-04-01T14:54:59;4.75;;;3.65;;
78931;SDS011;68331;53.362;55.932;2023-04-01T14:57:30;68.85;;;10.45;;
78931;SDS011;68331;53.362;55.932;2023-04-01T15:00:09;9.05;;;4.93;;
78931;SDS011;68331;53.362;55.932;2023-04-01T15:05:42;10.45;;;4.97;;
78931;SDS011;68331;53.362;55.932;2023-04-01T15:11:24;10.40;;;5.20;;
78931;SDS011;68331;53.362;55.932;2023-04-01T15:22:01;17.27;;;8.55;;
78931;SDS011;68331;53.362;55.932;2023-04-01T15:27:40;8.77;;;4.65;;
78931;SDS011;68331;53.362;55.932;2023-04-01T15:41:07;14.48;;;5.63;;
78931;SDS011;68331;53.362;55.932;2023-04-01T15:43:43;7.72;;;4.05;;
78931;SDS011;68331;53.362;55.932;2023-04-01T15:52:36;16.38;;;5.55;;
78931;SDS011;68331;53.362;55.932;2023-04-01T15:55:19;11.35;;;5.88;;
78931;SDS011;68331;53.362;55.932;2023-04-01T15:58:15;13.30;;;6.75;;
78931;SDS011;68331;53.362;55.932;2023-04-01T16:03:24;24.02;;;6.35;;
78931;SDS011;68331;53.362;55.932;2023-04-01T16:34:35;8.48;;;5.85;;
78931;SDS011;68331;53.362;55.932;2023-04-01T16:37:10;9.80;;;5.93;;
78931;SDS011;68331;53.362;55.932;2023-04-01T16:39:58;10.90;;;6.70;;
78931;SDS011;68331;53.362;55.932;2023-04-01T16:42:49;14.85;;;7.28;;
78931;SDS011;68331;53.362;55.932;2023-04-01T16:45:35;13.38;;;7.15;;
78931;SDS011;68331;53.362;55.932;2023-04-01T16:48:09;15.40;;;8.00;;
78931;SDS011;68331;53.362;55.932;2023-04-01T16:58:35;13.90;;;8.02;;
78931;SDS011;68331;53.362;55.932;2023-04-01T17:01:24;14.43;;;8.52;;
78931;SDS011;68331;53.362;55.932;2023-04-01T17:03:57;19.48;;;8.88;;
78931;SDS011;68331;53.362;55.932;2023-04-01T17:09:53;75.32;;;14.95;;
78931;SDS011;68331;53.362;55.932;2023-04-01T17:31:33;136.13;;;18.00;;
78931;SDS011;68331;53.362;55.932;2023-04-01T17:40:21;48.13;;;9.90;;
78931;SDS011;68331;53.362;55.932;2023-04-01T17:45:55;14.77;;;8.75;;
78931;SDS011;68331;53.362;55.932;2023-04-01T17:48:24;14.55;;;7.53;;
78931;SDS011;68331;53.362;55.932;2023-04-01T18:09:07;15.45;;;7.28;;
78931;SDS011;68331;53.362;55.932;2023-04-01T18:12:11;11.43;;;7.43;;
78931;SDS011;68331;53.362;55.932;2023-04-01T18:20:52;12.15;;;6.05;;
78931;SDS011;68331;53.362;55.932;2023-04-01T18:26:13;9.50;;;6.25;;
78931;SDS011;68331;53.362;55.932;2023-04-01T18:31:35;10.80;;;6.65;;
78931;SDS011;68331;53.362;55.932;2023-04-01T18:39:53;12.63;;;7.10;;
78931;SDS011;68331;53.362;55.932;2023-04-01T18:42:53;14.07;;;6.30;;
78931;SDS011;68331;53.362;55.932;2023-04-01T18:45:23;26.27;;;8.02;;
78931;SDS011;68331;53.362;55.932;2023-04-01T18:50:55;13.68;;;7.43;;
78931;SDS011;68331;53.362;55.932;2023-04-01T18:53:27;15.00;;;6.57;;
78931;SDS011;68331;53.362;55.932;2023-04-01T18:55:56;12.77;;;6.32;;
78931;SDS011;68331;53.362;55.932;2023-04-01T18:58:32;11.82;;;6.07;;
78931;SDS011;68331;53.362;55.932;2023-04-01T19:10:53;8.70;;;5.57;;
78931;SDS011;68331;53.362;55.932;2023-04-01T19:13:56;12.90;;;5.35;;
78931;SDS011;68331;53.362;55.932;2023-04-01T19:16:19;9.50;;;4.82;;
78931;SDS011;68331;53.362;55.932;2023-04-01T19:21:44;8.75;;;5.38;;
78931;SDS011;68331;53.362;55.932;2023-04-01T19:24:44;8.07;;;5.57;;
78931;SDS011;68331;53.362;55.932;2023-04-01T19:40:51;13.15;;;5.53;;
78931;SDS011;68331;53.362;55.932;2023-04-01T19:43:32;19.58;;;5.85;;
78931;SDS011;68331;53.362;55.932;2023-04-01T19:46:07;8.80;;;5.32;;
78931;SDS011;68331;53.362;55.932;2023-04-01T19:48:55;9.30;;;5.25;;
78931;SDS011;68331;53.362;55.932;2023-04-01T19:57:32;10.40;;;6.55;;
78931;SDS011;68331;53.362;55.932;2023-04-01T19:59:41;14.43;;;8.13;;
78931;SDS011;68331;53.362;55.932;2023-04-01T20:10:49;42.88;;;18.80;;
78931;SDS011;68331;53.362;55.932;2023-04-01T20:13:46;28.38;;;14.85;;
78931;SDS011;68331;53.362;55.932;2023-04-01T20:16:36;39.95;;;18.33;;
78931;SDS011;68331;53.362;55.932;2023-04-01T20:19:28;31.67;;;16.92;;
78931;SDS011;68331;53.362;55.932;2023-04-01T20:22:00;66.65;;;19.70;;
78931;SDS011;68331;53.362;55.932;2023-04-01T20:24:34;44.10;;;16.00;;
78931;SDS011;68331;53.362;55.932;2023-04-01T20:27:08;24.45;;;12.95;;
78931;SDS011;68331;53.362;55.932;2023-04-01T20:29:47;40.00;;;15.18;;
78931;SDS011;68331;53.362;55.932;2023-04-01T20:32:33;23.52;;;11.50;;
78931;SDS011;68331;53.362;55.932;2023-04-01T20:38:16;23.50;;;11.35;;
78931;SDS011;68331;53.362;55.932;2023-04-01T20:40:47;27.75;;;11.40;;
78931;SDS011;68331;53.362;55.932;2023-04-01T20:46:20;24.63;;;11.77;;
78931;SDS011;68331;53.362;55.932;2023-04-01T20:51:42;19.95;;;10.77;;
78931;SDS011;68331;53.362;55.932;2023-04-01T21:02:23;40.22;;;12.25;;
78931;SDS011;68331;53.362;55.932;2023-04-01T21:13:16;14.73;;;8.93;;
78931;SDS011;68331;53.362;55.932;2023-04-01T21:19:12;18.90;;;9.07;;
78931;SDS011;68331;53.362;55.932;2023-04-01T22:10:03;16.52;;;9.52;;
78931;SDS011;68331;53.362;55.932;2023-04-01T22:12:46;18.35;;;8.23;;
78931;SDS011;68331;53.362;55.932;2023-04-01T22:17:57;19.88;;;8.73;;
78931;SDS011;68331;53.362;55.932;2023-04-01T22:20:42;15.45;;;7.95;;
78931;SDS011;68331;53.362;55.932;2023-04-01T22:31:59;35.85;;;8.55;;
78931;SDS011;68331;53.362;55.932;2023-04-01T22:34:41;29.55;;;8.80;;
78931;SDS011;68331;53.362;55.932;2023-04-01T22:37:36;23.73;;;9.10;;
78931;SDS011;68331;53.362;55.932;2023-04-01T22:43:01;19.40;;;8.23;;
78931;SDS011;68331;53.362;55.932;2023-04-01T22:48:30;15.02;;;7.93;;
78931;SDS011;68331;53.362;55.932;2023-04-01T22:56:36;12.63;;;7.00;;
78931;SDS011;68331;53.362;55.932;2023-04-01T22:59:08;12.30;;;7.72;;
78931;SDS011;68331;53.362;55.932;2023-04-01T23:01:43;17.15;;;8.65;;
78931;SDS011;68331;53.362;55.932;2023-04-01T23:04:16;20.50;;;8.27;;
78931;SDS011;68331;53.362;55.932;2023-04-01T23:06:49;15.43;;;7.20;;
78931;SDS011;68331;53.362;55.932;2023-04-01T23:09:23;9.85;;;6.20;;
78931;SDS011;68331;53.362;55.932;2023-04-01T23:12:04;15.35;;;7.15;;
78931;SDS011;68331;53.362;55.932;2023-04-01T23:20:14;12.57;;;8.02;;
78931;SDS011;68331;53.362;55.932;2023-04-01T23:23:14;12.95;;;8.02;;
78931;SDS011;68331;53.362;55.932;2023-04-01T23:25:53;12.10;;;7.35;;
78931;SDS011;68331;53.362;55.932;2023-04-01T23:28:39;13.93;;;8.57;;
78931;SDS011;68331;53.362;55.932;2023-04-01T23:36:47;15.48;;;8.73;;
78931;SDS011;68331;53.362;55.932;2023-04-01T23:39:32;19.05;;;7.90;;
78931;SDS011;68331;53.362;55.932;2023-04-01T23:42:07;17.00;;;9.02;;
78931;SDS011;68331;53.362;55.932;2023-04-01T23:44:36;17.88;;;10.10;;
78931;SDS011;68331;53.362;55.932;2023-04-01T23:47:03;21.17;;;10.80;;
78931;SDS011;68331;53.362;55.932;2023-04-01T23:49:53;18.35;;;9.48;;
78931;SDS011;68331;53.362;55.932;2023-04-01T23:52:24;27.27;;;9.95;;
78931;SDS011;68331;53.362;55.932;2023-04-01T23:54:57;21.17;;;9.90;;
78931;SDS011;68331;53.362;55.932;2023-04-01T23:57:34;19.50;;;11.30;;
